sensor_id;sensor_type;location;lat;lon;timestamp;P1;durP1;ratioP1;P2;durP2;ratioP2
75772;SDS011;64381;0.000;0.000;2023-10-31T00:01:36;3.00;;;1.50;;
75772;SDS011;64381;0.000;0.000;2023-10-31T00:04:02;3.07;;;1.40;;
75772;SDS011;64381;0.000;0.000;2023-10-31T00:06:27;2.83;;;1.40;;
75772;SDS011;64381;0.000;0.000;2023-10-31T00:08:52;3.47;;;1.57;;
75772;SDS011;64381;0.000;0.000;2023-10-31T00:11:17;3.07;;;1.23;;
75772;SDS011;64381;0.000;0.000;2023-10-31T00:13:43;3.67;;;1.30;;
75772;SDS011;64381;0.000;0.000;2023-10-31T00:16:08;2.90;;;1.20;;
75772;SDS011;64381;0.000;0.000;2023-10-31T00:18:33;2.83;;;1.20;;
75772;SDS011;64381;0.000;0.000;2023-10-31T00:20:58;2.87;;;1.20;;
75772;SDS011;64381;0.000;0.000;2023-10-31T00:23:23;3.07;;;1.20;;
75772;SDS011;64381;0.000;0.000;2023-10-31T00:25:49;2.83;;;1.20;;
75772;SDS011;64381;0.000;0.000;2023-10-31T00:28:14;2.67;;;1.00;;
75772;SDS011;64381;0.000;0.000;2023-10-31T00:30:39;2.67;;;1.10;;
75772;SDS011;64381;0.000;0.000;2023-10-31T00:33:04;2.47;;;1.00;;
75772;SDS011;64381;0.000;0.000;2023-10-31T00:35:30;2.80;;;1.10;;
75772;SDS011;64381;0.000;0.000;2023-10-31T00:37:55;2.77;;;1.10;;
75772;SDS011;64381;0.000;0.000;2023-10-31T00:40:20;2.20;;;0.90;;
75772;SDS011;64381;0.000;0.000;2023-10-31T00:42:45;2.50;;;1.07;;
75772;SDS011;64381;0.000;0.000;2023-10-31T00:45:10;2.63;;;1.00;;
75772;SDS011;64381;0.000;0.000;2023-10-31T00:47:36;2.40;;;0.87;;
75772;SDS011;64381;0.000;0.000;2023-10-31T00:50:01;2.30;;;0.80;;
75772;SDS011;64381;0.000;0.000;2023-10-31T00:52:27;2.20;;;0.70;;
75772;SDS011;64381;0.000;0.000;2023-10-31T00:54:52;2.53;;;0.90;;
75772;SDS011;64381;0.000;0.000;2023-10-31T00:57:17;2.40;;;0.80;;
75772;SDS011;64381;0.000;0.000;2023-10-31T00:59:42;2.30;;;0.80;;
75772;SDS011;64381;0.000;0.000;2023-10-31T01:02:08;2.70;;;0.83;;
75772;SDS011;64381;0.000;0.000;2023-10-31T01:04:33;2.20;;;0.70;;
75772;SDS011;64381;0.000;0.000;2023-10-31T01:07:00;2.20;;;0.70;;
75772;SDS011;64381;0.000;0.000;2023-10-31T01:09:26;2.23;;;0.73;;
75772;SDS011;64381;0.000;0.000;2023-10-31T01:11:51;2.10;;;0.70;;
75772;SDS011;64381;0.000;0.000;2023-10-31T01:14:16;1.97;;;0.70;;
75772;SDS011;64381;0.000;0.000;2023-10-31T01:16:41;2.53;;;0.80;;
75772;SDS011;64381;0.000;0.000;2023-10-31T01:19:07;2.20;;;0.70;;
75772;SDS011;64381;0.000;0.000;2023-10-31T01:21:32;2.03;;;0.80;;
75772;SDS011;64381;0.000;0.000;2023-10-31T01:23:58;1.90;;;0.60;;
75772;SDS011;64381;0.000;0.000;2023-10-31T01:26:23;2.22;;;0.57;;
75772;SDS011;64381;0.000;0.000;2023-10-31T01:28:49;2.20;;;0.70;;
75772;SDS011;64381;0.000;0.000;2023-10-31T01:31:14;2.10;;;0.80;;
75772;SDS011;64381;0.000;0.000;2023-10-31T01:33:39;2.07;;;0.70;;
75772;SDS011;64381;0.000;0.000;2023-10-31T01:36:04;2.40;;;0.70;;
75772;SDS011;64381;0.000;0.000;2023-10-31T01:38:30;2.75;;;0.60;;
75772;SDS011;64381;0.000;0.000;2023-10-31T01:40:55;2.10;;;0.73;;
75772;SDS011;64381;0.000;0.000;2023-10-31T01:43:33;2.23;;;0.70;;
75772;SDS011;64381;0.000;0.000;2023-10-31T01:45:59;2.70;;;0.70;;
75772;SDS011;64381;0.000;0.000;2023-10-31T01:48:25;1.87;;;0.60;;
75772;SDS011;64381;0.000;0.000;2023-10-31T01:50:52;1.90;;;0.65;;
75772;SDS011;64381;0.000;0.000;2023-10-31T01:53:18;2.00;;;0.60;;
75772;SDS011;64381;0.000;0.000;2023-10-31T01:55:44;2.13;;;0.70;;
75772;SDS011;64381;0.000;0.000;2023-10-31T01:58:10;1.80;;;0.52;;
75772;SDS011;64381;0.000;0.000;2023-10-31T02:00:36;2.00;;;0.57;;
75772;SDS011;64381;0.000;0.000;2023-10-31T02:03:05;1.80;;;0.57;;
75772;SDS011;64381;0.000;0.000;2023-10-31T02:05:30;1.95;;;0.60;;
75772;SDS011;64381;0.000;0.000;2023-10-31T02:07:55;2.37;;;0.60;;
75772;SDS011;64381;0.000;0.000;2023-10-31T02:10:20;1.67;;;0.53;;
75772;SDS011;64381;0.000;0.000;2023-10-31T02:12:46;1.87;;;0.57;;
75772;SDS011;64381;0.000;0.000;2023-10-31T02:15:11;2.03;;;0.60;;
75772;SDS011;64381;0.000;0.000;2023-10-31T02:17:36;2.03;;;0.60;;
75772;SDS011;64381;0.000;0.000;2023-10-31T02:20:01;1.80;;;0.50;;
75772;SDS011;64381;0.000;0.000;2023-10-31T02:22:27;1.70;;;0.60;;
75772;SDS011;64381;0.000;0.000;2023-10-31T02:24:52;1.77;;;0.70;;
75772;SDS011;64381;0.000;0.000;2023-10-31T02:27:17;1.97;;;0.60;;
75772;SDS011;64381;0.000;0.000;2023-10-31T02:29:42;1.97;;;0.60;;
75772;SDS011;64381;0.000;0.000;2023-10-31T02:32:08;1.80;;;0.57;;
75772;SDS011;64381;0.000;0.000;2023-10-31T02:34:33;1.90;;;0.60;;
75772;SDS011;64381;0.000;0.000;2023-10-31T02:36:58;2.13;;;0.70;;
75772;SDS011;64381;0.000;0.000;2023-10-31T02:39:23;1.60;;;0.43;;
75772;SDS011;64381;0.000;0.000;2023-10-31T02:41:48;1.80;;;0.60;;
75772;SDS011;64381;0.000;0.000;2023-10-31T02:44:14;2.40;;;0.50;;
75772;SDS011;64381;0.000;0.000;2023-10-31T02:46:40;1.70;;;0.50;;
75772;SDS011;64381;0.000;0.000;2023-10-31T02:49:05;1.50;;;0.60;;
75772;SDS011;64381;0.000;0.000;2023-10-31T02:51:30;1.70;;;0.50;;
75772;SDS011;64381;0.000;0.000;2023-10-31T02:53:56;1.70;;;0.50;;
75772;SDS011;64381;0.000;0.000;2023-10-31T02:56:21;1.60;;;0.50;;
75772;SDS011;64381;0.000;0.000;2023-10-31T02:58:46;2.33;;;0.70;;
75772;SDS011;64381;0.000;0.000;2023-10-31T03:01:11;1.50;;;0.50;;
75772;SDS011;64381;0.000;0.000;2023-10-31T03:03:36;1.67;;;0.50;;
75772;SDS011;64381;0.000;0.000;2023-10-31T03:06:02;2.37;;;0.60;;
75772;SDS011;64381;0.000;0.000;2023-10-31T03:08:27;1.53;;;0.50;;
75772;SDS011;64381;0.000;0.000;2023-10-31T03:10:52;1.60;;;0.57;;
75772;SDS011;64381;0.000;0.000;2023-10-31T03:13:18;2.00;;;0.67;;
75772;SDS011;64381;0.000;0.000;2023-10-31T03:15:43;1.67;;;0.50;;
75772;SDS011;64381;0.000;0.000;2023-10-31T03:18:09;1.40;;;0.45;;
75772;SDS011;64381;0.000;0.000;2023-10-31T03:20:34;1.73;;;0.53;;
75772;SDS011;64381;0.000;0.000;2023-10-31T03:22:59;1.73;;;0.50;;
75772;SDS011;64381;0.000;0.000;2023-10-31T03:25:24;2.77;;;0.60;;
75772;SDS011;64381;0.000;0.000;2023-10-31T03:27:50;1.47;;;0.47;;
75772;SDS011;64381;0.000;0.000;2023-10-31T03:30:15;1.67;;;0.40;;
75772;SDS011;64381;0.000;0.000;2023-10-31T03:32:40;1.27;;;0.40;;
75772;SDS011;64381;0.000;0.000;2023-10-31T03:35:05;1.70;;;0.50;;
75772;SDS011;64381;0.000;0.000;2023-10-31T03:37:31;1.30;;;0.40;;
75772;SDS011;64381;0.000;0.000;2023-10-31T03:39:56;1.43;;;0.40;;
75772;SDS011;64381;0.000;0.000;2023-10-31T03:42:21;1.80;;;0.47;;
75772;SDS011;64381;0.000;0.000;2023-10-31T03:44:46;1.40;;;0.40;;
75772;SDS011;64381;0.000;0.000;2023-10-31T03:47:12;2.20;;;0.63;;
75772;SDS011;64381;0.000;0.000;2023-10-31T03:49:37;1.80;;;0.60;;
75772;SDS011;64381;0.000;0.000;2023-10-31T03:52:04;1.70;;;0.50;;
75772;SDS011;64381;0.000;0.000;2023-10-31T03:54:29;2.53;;;0.50;;
75772;SDS011;64381;0.000;0.000;2023-10-31T03:56:55;1.33;;;0.40;;
75772;SDS011;64381;0.000;0.000;2023-10-31T03:59:20;1.70;;;0.40;;
75772;SDS011;64381;0.000;0.000;2023-10-31T04:01:45;1.77;;;0.50;;
75772;SDS011;64381;0.000;0.000;2023-10-31T04:04:10;1.63;;;0.50;;
75772;SDS011;64381;0.000;0.000;2023-10-31T04:06:36;1.80;;;0.50;;
75772;SDS011;64381;0.000;0.000;2023-10-31T04:09:01;1.30;;;0.40;;
75772;SDS011;64381;0.000;0.000;2023-10-31T04:11:26;1.70;;;0.50;;
75772;SDS011;64381;0.000;0.000;2023-10-31T04:13:51;1.33;;;0.40;;
75772;SDS011;64381;0.000;0.000;2023-10-31T04:16:16;1.90;;;0.60;;
75772;SDS011;64381;0.000;0.000;2023-10-31T04:18:42;1.43;;;0.43;;
75772;SDS011;64381;0.000;0.000;2023-10-31T04:21:07;2.00;;;0.50;;
75772;SDS011;64381;0.000;0.000;2023-10-31T04:23:32;1.20;;;0.33;;
75772;SDS011;64381;0.000;0.000;2023-10-31T04:25:57;1.57;;;0.40;;
75772;SDS011;64381;0.000;0.000;2023-10-31T04:28:22;1.50;;;0.50;;
75772;SDS011;64381;0.000;0.000;2023-10-31T04:30:48;1.73;;;0.60;;
75772;SDS011;64381;0.000;0.000;2023-10-31T04:33:13;2.00;;;0.50;;
75772;SDS011;64381;0.000;0.000;2023-10-31T04:35:38;1.70;;;0.60;;
75772;SDS011;64381;0.000;0.000;2023-10-31T04:38:03;1.60;;;0.50;;
75772;SDS011;64381;0.000;0.000;2023-10-31T04:40:29;1.90;;;0.60;;
75772;SDS011;64381;0.000;0.000;2023-10-31T04:42:54;1.53;;;0.50;;
75772;SDS011;64381;0.000;0.000;2023-10-31T04:45:19;1.88;;;0.50;;
75772;SDS011;64381;0.000;0.000;2023-10-31T04:47:45;1.80;;;0.60;;
75772;SDS011;64381;0.000;0.000;2023-10-31T04:50:10;2.33;;;0.73;;
75772;SDS011;64381;0.000;0.000;2023-10-31T04:52:35;2.10;;;0.50;;
75772;SDS011;64381;0.000;0.000;2023-10-31T04:55:01;1.93;;;0.63;;
75772;SDS011;64381;0.000;0.000;2023-10-31T04:57:26;1.70;;;0.50;;
75772;SDS011;64381;0.000;0.000;2023-10-31T04:59:51;1.80;;;0.60;;
75772;SDS011;64381;0.000;0.000;2023-10-31T05:02:16;1.87;;;0.60;;
75772;SDS011;64381;0.000;0.000;2023-10-31T05:04:41;2.00;;;0.63;;
75772;SDS011;64381;0.000;0.000;2023-10-31T05:07:07;1.90;;;0.60;;
75772;SDS011;64381;0.000;0.000;2023-10-31T05:09:32;2.20;;;0.70;;
75772;SDS011;64381;0.000;0.000;2023-10-31T05:11:57;2.00;;;0.70;;
75772;SDS011;64381;0.000;0.000;2023-10-31T05:14:22;2.00;;;0.60;;
75772;SDS011;64381;0.000;0.000;2023-10-31T05:16:47;2.53;;;0.70;;
75772;SDS011;64381;0.000;0.000;2023-10-31T05:19:13;3.30;;;1.10;;
75772;SDS011;64381;0.000;0.000;2023-10-31T05:21:38;1.90;;;0.60;;
75772;SDS011;64381;0.000;0.000;2023-10-31T05:24:04;2.10;;;0.67;;
75772;SDS011;64381;0.000;0.000;2023-10-31T05:26:29;2.75;;;0.70;;
75772;SDS011;64381;0.000;0.000;2023-10-31T05:28:55;2.00;;;0.60;;
75772;SDS011;64381;0.000;0.000;2023-10-31T05:31:21;2.43;;;0.73;;
75772;SDS011;64381;0.000;0.000;2023-10-31T05:33:46;1.97;;;0.60;;
75772;SDS011;64381;0.000;0.000;2023-10-31T05:36:17;2.77;;;0.57;;
75772;SDS011;64381;0.000;0.000;2023-10-31T05:38:51;2.03;;;0.57;;
75772;SDS011;64381;0.000;0.000;2023-10-31T05:41:17;1.83;;;0.50;;
75772;SDS011;64381;0.000;0.000;2023-10-31T05:43:42;2.20;;;0.70;;
75772;SDS011;64381;0.000;0.000;2023-10-31T05:46:07;2.17;;;0.75;;
75772;SDS011;64381;0.000;0.000;2023-10-31T05:48:33;2.13;;;0.73;;
75772;SDS011;64381;0.000;0.000;2023-10-31T05:50:58;2.37;;;0.70;;
75772;SDS011;64381;0.000;0.000;2023-10-31T05:53:23;2.20;;;0.70;;
75772;SDS011;64381;0.000;0.000;2023-10-31T05:55:48;2.30;;;0.83;;
75772;SDS011;64381;0.000;0.000;2023-10-31T05:58:14;2.30;;;0.70;;
75772;SDS011;64381;0.000;0.000;2023-10-31T06:00:39;2.40;;;0.73;;
75772;SDS011;64381;0.000;0.000;2023-10-31T06:03:04;2.30;;;0.70;;
75772;SDS011;64381;0.000;0.000;2023-10-31T06:05:29;2.20;;;0.80;;
75772;SDS011;64381;0.000;0.000;2023-10-31T06:07:55;2.10;;;0.70;;
75772;SDS011;64381;0.000;0.000;2023-10-31T06:10:20;2.00;;;0.77;;
75772;SDS011;64381;0.000;0.000;2023-10-31T06:12:45;2.10;;;0.80;;
75772;SDS011;64381;0.000;0.000;2023-10-31T06:15:10;1.90;;;0.60;;
75772;SDS011;64381;0.000;0.000;2023-10-31T06:17:36;2.20;;;0.80;;
75772;SDS011;64381;0.000;0.000;2023-10-31T06:20:01;2.37;;;0.70;;
75772;SDS011;64381;0.000;0.000;2023-10-31T06:22:26;2.40;;;0.63;;
75772;SDS011;64381;0.000;0.000;2023-10-31T06:24:52;2.87;;;0.90;;
75772;SDS011;64381;0.000;0.000;2023-10-31T06:27:17;2.50;;;0.70;;
75772;SDS011;64381;0.000;0.000;2023-10-31T06:29:42;1.90;;;0.67;;
75772;SDS011;64381;0.000;0.000;2023-10-31T06:32:07;1.87;;;0.70;;
75772;SDS011;64381;0.000;0.000;2023-10-31T06:34:33;2.80;;;0.80;;
75772;SDS011;64381;0.000;0.000;2023-10-31T06:36:58;2.67;;;0.80;;
75772;SDS011;64381;0.000;0.000;2023-10-31T06:39:23;2.37;;;0.77;;
75772;SDS011;64381;0.000;0.000;2023-10-31T06:41:48;2.47;;;0.90;;
75772;SDS011;64381;0.000;0.000;2023-10-31T06:44:14;2.87;;;0.83;;
75772;SDS011;64381;0.000;0.000;2023-10-31T06:46:39;2.30;;;0.77;;
75772;SDS011;64381;0.000;0.000;2023-10-31T06:49:04;1.90;;;0.60;;
75772;SDS011;64381;0.000;0.000;2023-10-31T06:51:29;2.70;;;0.80;;
75772;SDS011;64381;0.000;0.000;2023-10-31T06:53:55;2.10;;;0.70;;
75772;SDS011;64381;0.000;0.000;2023-10-31T06:56:20;2.50;;;0.93;;
75772;SDS011;64381;0.000;0.000;2023-10-31T06:58:45;2.47;;;0.80;;
75772;SDS011;64381;0.000;0.000;2023-10-31T07:01:10;3.10;;;0.80;;
75772;SDS011;64381;0.000;0.000;2023-10-31T07:03:36;2.50;;;0.90;;
75772;SDS011;64381;0.000;0.000;2023-10-31T07:06:01;2.17;;;0.83;;
75772;SDS011;64381;0.000;0.000;2023-10-31T07:08:26;2.30;;;0.70;;
75772;SDS011;64381;0.000;0.000;2023-10-31T07:10:51;2.50;;;0.80;;
75772;SDS011;64381;0.000;0.000;2023-10-31T07:13:16;2.33;;;0.80;;
75772;SDS011;64381;0.000;0.000;2023-10-31T07:15:42;3.07;;;0.80;;
75772;SDS011;64381;0.000;0.000;2023-10-31T07:18:07;3.13;;;0.90;;
75772;SDS011;64381;0.000;0.000;2023-10-31T07:20:32;2.63;;;0.80;;
75772;SDS011;64381;0.000;0.000;2023-10-31T07:22:57;2.20;;;0.80;;
75772;SDS011;64381;0.000;0.000;2023-10-31T07:25:23;2.47;;;0.80;;
75772;SDS011;64381;0.000;0.000;2023-10-31T07:27:48;2.40;;;0.70;;
75772;SDS011;64381;0.000;0.000;2023-10-31T07:30:13;2.30;;;0.80;;
75772;SDS011;64381;0.000;0.000;2023-10-31T07:32:38;2.43;;;0.80;;
75772;SDS011;64381;0.000;0.000;2023-10-31T07:35:04;2.23;;;0.80;;
75772;SDS011;64381;0.000;0.000;2023-10-31T07:37:29;2.70;;;0.90;;
75772;SDS011;64381;0.000;0.000;2023-10-31T07:39:54;2.07;;;0.73;;
75772;SDS011;64381;0.000;0.000;2023-10-31T07:42:20;2.60;;;0.97;;
75772;SDS011;64381;0.000;0.000;2023-10-31T07:44:45;2.60;;;0.63;;
75772;SDS011;64381;0.000;0.000;2023-10-31T07:47:10;2.20;;;0.73;;
75772;SDS011;64381;0.000;0.000;2023-10-31T07:49:35;3.00;;;0.80;;
75772;SDS011;64381;0.000;0.000;2023-10-31T07:52:00;2.60;;;0.80;;
75772;SDS011;64381;0.000;0.000;2023-10-31T07:54:26;2.00;;;0.60;;
75772;SDS011;64381;0.000;0.000;2023-10-31T07:56:51;2.23;;;0.80;;
75772;SDS011;64381;0.000;0.000;2023-10-31T07:59:16;2.93;;;0.80;;
75772;SDS011;64381;0.000;0.000;2023-10-31T08:01:41;2.40;;;0.77;;
75772;SDS011;64381;0.000;0.000;2023-10-31T08:04:07;2.60;;;0.73;;
75772;SDS011;64381;0.000;0.000;2023-10-31T08:06:32;2.50;;;0.80;;
75772;SDS011;64381;0.000;0.000;2023-10-31T08:08:57;2.13;;;0.80;;
75772;SDS011;64381;0.000;0.000;2023-10-31T08:11:22;2.50;;;0.87;;
75772;SDS011;64381;0.000;0.000;2023-10-31T08:13:47;3.13;;;0.80;;
75772;SDS011;64381;0.000;0.000;2023-10-31T08:16:16;2.50;;;0.83;;
75772;SDS011;64381;0.000;0.000;2023-10-31T08:18:42;2.30;;;0.73;;
75772;SDS011;64381;0.000;0.000;2023-10-31T08:21:07;3.40;;;0.70;;
75772;SDS011;64381;0.000;0.000;2023-10-31T08:23:33;3.93;;;1.00;;
75772;SDS011;64381;0.000;0.000;2023-10-31T08:25:58;2.73;;;0.80;;
75772;SDS011;64381;0.000;0.000;2023-10-31T08:28:23;3.00;;;0.90;;
75772;SDS011;64381;0.000;0.000;2023-10-31T08:30:48;2.47;;;0.70;;
75772;SDS011;64381;0.000;0.000;2023-10-31T08:33:14;2.10;;;0.70;;
75772;SDS011;64381;0.000;0.000;2023-10-31T08:35:39;2.30;;;0.80;;
75772;SDS011;64381;0.000;0.000;2023-10-31T08:38:04;2.17;;;0.70;;
75772;SDS011;64381;0.000;0.000;2023-10-31T08:40:29;2.20;;;0.70;;
75772;SDS011;64381;0.000;0.000;2023-10-31T08:42:55;2.63;;;0.80;;
75772;SDS011;64381;0.000;0.000;2023-10-31T08:45:20;2.30;;;0.70;;
75772;SDS011;64381;0.000;0.000;2023-10-31T08:47:45;3.47;;;0.80;;
75772;SDS011;64381;0.000;0.000;2023-10-31T08:50:10;2.83;;;0.77;;
75772;SDS011;64381;0.000;0.000;2023-10-31T08:52:36;3.03;;;0.70;;
75772;SDS011;64381;0.000;0.000;2023-10-31T08:55:01;2.80;;;0.70;;
75772;SDS011;64381;0.000;0.000;2023-10-31T08:57:26;2.70;;;0.97;;
75772;SDS011;64381;0.000;0.000;2023-10-31T08:59:51;2.70;;;0.73;;
75772;SDS011;64381;0.000;0.000;2023-10-31T09:02:16;2.67;;;0.80;;
75772;SDS011;64381;0.000;0.000;2023-10-31T09:04:42;2.50;;;0.67;;
75772;SDS011;64381;0.000;0.000;2023-10-31T09:07:07;2.40;;;0.80;;
75772;SDS011;64381;0.000;0.000;2023-10-31T09:09:32;2.33;;;0.73;;
75772;SDS011;64381;0.000;0.000;2023-10-31T09:11:57;2.23;;;0.70;;
75772;SDS011;64381;0.000;0.000;2023-10-31T09:14:23;3.37;;;0.70;;
75772;SDS011;64381;0.000;0.000;2023-10-31T09:16:48;2.37;;;0.80;;
75772;SDS011;64381;0.000;0.000;2023-10-31T09:19:13;2.33;;;0.73;;
75772;SDS011;64381;0.000;0.000;2023-10-31T09:21:38;3.03;;;0.80;;
75772;SDS011;64381;0.000;0.000;2023-10-31T09:24:04;4.27;;;1.00;;
75772;SDS011;64381;0.000;0.000;2023-10-31T09:26:29;3.20;;;1.08;;
75772;SDS011;64381;0.000;0.000;2023-10-31T09:28:55;2.70;;;0.70;;
75772;SDS011;64381;0.000;0.000;2023-10-31T09:31:20;2.40;;;0.60;;
75772;SDS011;64381;0.000;0.000;2023-10-31T09:33:45;3.00;;;0.70;;
75772;SDS011;64381;0.000;0.000;2023-10-31T09:36:11;2.33;;;0.70;;
75772;SDS011;64381;0.000;0.000;2023-10-31T09:38:36;2.77;;;0.90;;
75772;SDS011;64381;0.000;0.000;2023-10-31T09:41:02;3.07;;;0.90;;
75772;SDS011;64381;0.000;0.000;2023-10-31T09:43:28;2.38;;;0.80;;
75772;SDS011;64381;0.000;0.000;2023-10-31T09:45:53;2.87;;;0.80;;
75772;SDS011;64381;0.000;0.000;2023-10-31T09:48:19;2.43;;;0.80;;
75772;SDS011;64381;0.000;0.000;2023-10-31T09:50:45;4.40;;;0.80;;
75772;SDS011;64381;0.000;0.000;2023-10-31T09:53:11;2.63;;;0.70;;
75772;SDS011;64381;0.000;0.000;2023-10-31T09:55:37;2.37;;;0.80;;
75772;SDS011;64381;0.000;0.000;2023-10-31T09:58:03;2.58;;;0.90;;
75772;SDS011;64381;0.000;0.000;2023-10-31T10:00:28;2.83;;;0.80;;
75772;SDS011;64381;0.000;0.000;2023-10-31T10:02:54;4.27;;;1.10;;
75772;SDS011;64381;0.000;0.000;2023-10-31T10:05:19;3.85;;;0.90;;
75772;SDS011;64381;0.000;0.000;2023-10-31T10:07:46;2.72;;;0.80;;
75772;SDS011;64381;0.000;0.000;2023-10-31T10:10:11;3.23;;;0.90;;
75772;SDS011;64381;0.000;0.000;2023-10-31T10:12:37;2.83;;;1.10;;
75772;SDS011;64381;0.000;0.000;2023-10-31T10:15:03;3.37;;;0.97;;
75772;SDS011;64381;0.000;0.000;2023-10-31T10:17:28;2.70;;;0.80;;
75772;SDS011;64381;0.000;0.000;2023-10-31T10:20:09;3.50;;;1.00;;
75772;SDS011;64381;0.000;0.000;2023-10-31T10:22:36;2.40;;;0.98;;
75772;SDS011;64381;0.000;0.000;2023-10-31T10:25:06;2.42;;;0.90;;
75772;SDS011;64381;0.000;0.000;2023-10-31T10:27:31;2.93;;;1.03;;
75772;SDS011;64381;0.000;0.000;2023-10-31T10:29:57;3.25;;;0.90;;
75772;SDS011;64381;0.000;0.000;2023-10-31T10:32:22;4.60;;;0.90;;
75772;SDS011;64381;0.000;0.000;2023-10-31T10:34:47;3.20;;;1.00;;
75772;SDS011;64381;0.000;0.000;2023-10-31T10:37:13;2.97;;;1.00;;
75772;SDS011;64381;0.000;0.000;2023-10-31T10:39:38;2.60;;;0.90;;
75772;SDS011;64381;0.000;0.000;2023-10-31T10:42:05;3.25;;;1.20;;
75772;SDS011;64381;0.000;0.000;2023-10-31T10:44:34;3.10;;;0.97;;
75772;SDS011;64381;0.000;0.000;2023-10-31T10:47:04;3.72;;;1.08;;
75772;SDS011;64381;0.000;0.000;2023-10-31T10:49:32;2.70;;;0.90;;
75772;SDS011;64381;0.000;0.000;2023-10-31T10:57:23;3.60;;;1.07;;
75772;SDS011;64381;0.000;0.000;2023-10-31T10:59:51;3.70;;;1.10;;
75772;SDS011;64381;0.000;0.000;2023-10-31T11:02:20;4.90;;;1.20;;
75772;SDS011;64381;0.000;0.000;2023-10-31T11:04:47;2.53;;;1.00;;
75772;SDS011;64381;0.000;0.000;2023-10-31T11:07:13;3.00;;;1.00;;
75772;SDS011;64381;0.000;0.000;2023-10-31T11:09:40;3.13;;;1.00;;
75772;SDS011;64381;0.000;0.000;2023-10-31T11:12:06;3.17;;;0.95;;
75772;SDS011;64381;0.000;0.000;2023-10-31T11:14:33;4.47;;;0.90;;
75772;SDS011;64381;0.000;0.000;2023-10-31T11:17:00;3.17;;;1.00;;
75772;SDS011;64381;0.000;0.000;2023-10-31T11:19:27;2.65;;;0.90;;
75772;SDS011;64381;0.000;0.000;2023-10-31T11:21:54;3.53;;;1.20;;
75772;SDS011;64381;0.000;0.000;2023-10-31T11:25:14;3.90;;;0.90;;
75772;SDS011;64381;0.000;0.000;2023-10-31T11:27:16;2.73;;;1.00;;
75772;SDS011;64381;0.000;0.000;2023-10-31T11:29:42;3.35;;;1.00;;
75772;SDS011;64381;0.000;0.000;2023-10-31T11:32:10;2.93;;;0.90;;
75772;SDS011;64381;0.000;0.000;2023-10-31T11:34:39;3.47;;;1.05;;
75772;SDS011;64381;0.000;0.000;2023-10-31T11:37:25;2.75;;;0.90;;
75772;SDS011;64381;0.000;0.000;2023-10-31T11:42:38;2.80;;;0.80;;
75772;SDS011;64381;0.000;0.000;2023-10-31T11:45:07;2.60;;;0.88;;
75772;SDS011;64381;0.000;0.000;2023-10-31T11:47:48;3.38;;;1.17;;
75772;SDS011;64381;0.000;0.000;2023-10-31T11:50:14;2.60;;;1.00;;
75772;SDS011;64381;0.000;0.000;2023-10-31T11:52:40;2.60;;;0.80;;
75772;SDS011;64381;0.000;0.000;2023-10-31T11:55:08;2.60;;;1.07;;
75772;SDS011;64381;0.000;0.000;2023-10-31T11:57:34;2.85;;;0.90;;
75772;SDS011;64381;0.000;0.000;2023-10-31T12:00:00;4.00;;;1.00;;
75772;SDS011;64381;0.000;0.000;2023-10-31T12:02:25;2.60;;;0.90;;
75772;SDS011;64381;0.000;0.000;2023-10-31T12:04:50;2.97;;;1.00;;
75772;SDS011;64381;0.000;0.000;2023-10-31T12:07:15;2.93;;;1.20;;
75772;SDS011;64381;0.000;0.000;2023-10-31T12:09:47;7.40;;;1.13;;
75772;SDS011;64381;0.000;0.000;2023-10-31T12:12:13;3.35;;;1.00;;
75772;SDS011;64381;0.000;0.000;2023-10-31T12:14:38;3.83;;;1.03;;
75772;SDS011;64381;0.000;0.000;2023-10-31T12:17:04;2.77;;;0.97;;
75772;SDS011;64381;0.000;0.000;2023-10-31T12:19:30;3.30;;;1.00;;
75772;SDS011;64381;0.000;0.000;2023-10-31T12:21:55;3.40;;;1.00;;
75772;SDS011;64381;0.000;0.000;2023-10-31T12:24:20;3.70;;;0.97;;
75772;SDS011;64381;0.000;0.000;2023-10-31T12:26:46;2.87;;;0.97;;
75772;SDS011;64381;0.000;0.000;2023-10-31T12:29:12;4.53;;;1.03;;
75772;SDS011;64381;0.000;0.000;2023-10-31T12:31:47;3.40;;;0.90;;
75772;SDS011;64381;0.000;0.000;2023-10-31T12:34:15;2.92;;;0.90;;
75772;SDS011;64381;0.000;0.000;2023-10-31T12:36:41;2.90;;;1.00;;
75772;SDS011;64381;0.000;0.000;2023-10-31T12:39:09;2.50;;;0.80;;
75772;SDS011;64381;0.000;0.000;2023-10-31T12:41:35;2.45;;;0.85;;
75772;SDS011;64381;0.000;0.000;2023-10-31T12:44:02;2.60;;;1.10;;
75772;SDS011;64381;0.000;0.000;2023-10-31T12:46:28;2.93;;;0.80;;
75772;SDS011;64381;0.000;0.000;2023-10-31T12:48:54;2.80;;;1.10;;
75772;SDS011;64381;0.000;0.000;2023-10-31T12:51:19;2.63;;;0.90;;
75772;SDS011;64381;0.000;0.000;2023-10-31T12:53:48;2.70;;;0.80;;
75772;SDS011;64381;0.000;0.000;2023-10-31T12:59:04;2.60;;;0.80;;
75772;SDS011;64381;0.000;0.000;2023-10-31T13:01:29;2.97;;;0.90;;
75772;SDS011;64381;0.000;0.000;2023-10-31T13:03:54;2.40;;;0.80;;
75772;SDS011;64381;0.000;0.000;2023-10-31T13:06:20;2.97;;;0.90;;
75772;SDS011;64381;0.000;0.000;2023-10-31T13:08:45;2.57;;;0.87;;
75772;SDS011;64381;0.000;0.000;2023-10-31T13:11:11;3.67;;;0.90;;
75772;SDS011;64381;0.000;0.000;2023-10-31T13:13:36;2.60;;;0.90;;
75772;SDS011;64381;0.000;0.000;2023-10-31T13:16:01;2.23;;;0.87;;
75772;SDS011;64381;0.000;0.000;2023-10-31T13:18:26;3.23;;;0.80;;
75772;SDS011;64381;0.000;0.000;2023-10-31T13:20:52;2.50;;;0.73;;
75772;SDS011;64381;0.000;0.000;2023-10-31T13:23:17;3.40;;;0.90;;
75772;SDS011;64381;0.000;0.000;2023-10-31T13:25:42;4.03;;;1.20;;
75772;SDS011;64381;0.000;0.000;2023-10-31T13:28:07;3.07;;;0.90;;
75772;SDS011;64381;0.000;0.000;2023-10-31T13:30:32;3.70;;;0.90;;
75772;SDS011;64381;0.000;0.000;2023-10-31T13:32:58;2.73;;;0.83;;
75772;SDS011;64381;0.000;0.000;2023-10-31T13:35:23;3.60;;;0.90;;
75772;SDS011;64381;0.000;0.000;2023-10-31T13:37:48;2.53;;;0.70;;
75772;SDS011;64381;0.000;0.000;2023-10-31T13:40:13;3.00;;;0.90;;
75772;SDS011;64381;0.000;0.000;2023-10-31T13:42:38;2.40;;;0.80;;
75772;SDS011;64381;0.000;0.000;2023-10-31T13:45:04;2.83;;;0.70;;
75772;SDS011;64381;0.000;0.000;2023-10-31T13:47:29;3.50;;;0.90;;
75772;SDS011;64381;0.000;0.000;2023-10-31T13:49:54;2.55;;;0.90;;
75772;SDS011;64381;0.000;0.000;2023-10-31T13:52:20;2.93;;;0.80;;
75772;SDS011;64381;0.000;0.000;2023-10-31T13:54:45;2.20;;;0.77;;
75772;SDS011;64381;0.000;0.000;2023-10-31T13:57:10;2.37;;;0.80;;
75772;SDS011;64381;0.000;0.000;2023-10-31T13:59:35;2.93;;;0.90;;
75772;SDS011;64381;0.000;0.000;2023-10-31T14:02:01;2.97;;;0.80;;
75772;SDS011;64381;0.000;0.000;2023-10-31T14:04:26;2.07;;;0.70;;
75772;SDS011;64381;0.000;0.000;2023-10-31T14:06:51;2.33;;;0.77;;
75772;SDS011;64381;0.000;0.000;2023-10-31T14:09:16;2.40;;;0.70;;
75772;SDS011;64381;0.000;0.000;2023-10-31T14:11:42;2.17;;;0.77;;
75772;SDS011;64381;0.000;0.000;2023-10-31T14:14:07;2.00;;;0.60;;
75772;SDS011;64381;0.000;0.000;2023-10-31T14:16:33;2.30;;;0.63;;
75772;SDS011;64381;0.000;0.000;2023-10-31T14:18:58;2.87;;;1.13;;
75772;SDS011;64381;0.000;0.000;2023-10-31T14:21:24;2.57;;;0.80;;
75772;SDS011;64381;0.000;0.000;2023-10-31T14:23:49;2.50;;;0.70;;
75772;SDS011;64381;0.000;0.000;2023-10-31T14:26:14;2.27;;;0.70;;
75772;SDS011;64381;0.000;0.000;2023-10-31T14:28:39;2.10;;;0.70;;
75772;SDS011;64381;0.000;0.000;2023-10-31T14:31:04;2.97;;;0.70;;
75772;SDS011;64381;0.000;0.000;2023-10-31T14:33:30;2.43;;;0.80;;
75772;SDS011;64381;0.000;0.000;2023-10-31T14:35:55;2.20;;;0.70;;
75772;SDS011;64381;0.000;0.000;2023-10-31T14:38:20;2.83;;;0.70;;
75772;SDS011;64381;0.000;0.000;2023-10-31T14:40:46;2.23;;;0.80;;
75772;SDS011;64381;0.000;0.000;2023-10-31T14:43:11;2.30;;;0.80;;
75772;SDS011;64381;0.000;0.000;2023-10-31T14:45:36;2.40;;;0.73;;
75772;SDS011;64381;0.000;0.000;2023-10-31T14:48:01;2.47;;;0.60;;
75772;SDS011;64381;0.000;0.000;2023-10-31T14:50:27;2.40;;;0.83;;
75772;SDS011;64381;0.000;0.000;2023-10-31T14:52:52;2.30;;;0.80;;
75772;SDS011;64381;0.000;0.000;2023-10-31T14:55:17;2.43;;;0.80;;
75772;SDS011;64381;0.000;0.000;2023-10-31T14:57:42;3.47;;;0.70;;
75772;SDS011;64381;0.000;0.000;2023-10-31T15:00:07;2.40;;;0.70;;
75772;SDS011;64381;0.000;0.000;2023-10-31T15:02:33;2.03;;;0.63;;